Time;durP1;ratioP1;P1;durP2;ratioP2;P2;SDS_P1;SDS_P2;PMS_P1;PMS_P2;Temp;Humidity;BMP_temperature;BMP_pressure;BME280_temperature;BME280_humidity;BME280_pressure;Samples;Min_cycle;Max_cycle;Signal;HPM_P1;HPM_P2
2022/11/06 04:02:43;;;;;;;0.90;0.90;;;5.70;87.00;;;;;;5250310;22;20493;-77
2022/11/06 04:05:16;;;;;;;1.33;1.33;;;5.70;87.50;;;;;;5074465;28;20426;-77
2022/11/06 04:13:56;;;;;;;0.93;0.93;;;5.50;87.30;;;;;;5074180;28;20429;-77
2022/11/06 04:16:09;;;;;;;1.00;1.00;;;5.40;87.80;;;;;;5073701;28;20997;-77
2022/11/06 04:18:37;;;;;;;1.00;1.00;;;5.60;87.10;;;;;;5073962;28;20468;-77
2022/11/06 04:21:24;;;;;;;1.03;1.00;;;5.40;85.70;;;;;;5073737;28;20484;-77
2022/11/06 04:27:02;;;;;;;0.83;0.83;;;5.70;85.20;;;;;;5073572;28;20867;-77
2022/11/06 04:29:39;;;;;;;0.97;0.97;;;5.70;84.50;;;;;;5073485;28;20794;-77
2022/11/06 04:32:14;;;;;;;1.00;1.00;;;5.60;84.90;;;;;;5073704;28;20473;-77
2022/11/06 04:34:45;;;;;;;1.10;1.10;;;5.70;84.80;;;;;;5073731;28;20444;-77
2022/11/06 04:37:18;;;;;;;0.90;0.90;;;5.60;84.20;;;;;;5073663;28;20426;-77
2022/11/06 04:39:51;;;;;;;0.93;0.93;;;5.30;85.00;;;;;;5073659;28;20437;-77
2022/11/06 04:42:28;;;;;;;1.10;1.10;;;5.40;85.70;;;;;;5073170;28;20997;-77
2022/11/06 04:45:01;;;;;;;1.23;1.23;;;5.30;85.60;;;;;;5074176;28;20429;-77
2022/11/06 04:47:28;;;;;;;0.97;0.97;;;5.50;85.80;;;;;;5073579;28;20426;-77
2022/11/06 04:49:59;;;;;;;1.00;1.00;;;5.70;85.10;;;;;;5073541;28;20452;-77
2022/11/06 04:52:28;;;;;;;0.90;0.90;;;5.80;84.30;;;;;;5073152;28;21044;-77
2022/11/06 04:54:57;;;;;;;0.90;0.90;;;5.90;83.60;;;;;;5073463;28;20442;-77
2022/11/06 04:57:24;;;;;;;0.93;0.93;;;5.90;83.30;;;;;;5073101;28;20453;-77
2022/11/06 04:59:51;;;;;;;1.00;1.00;;;6.00;82.80;;;;;;5073682;28;20441;-76
2022/11/06 05:02:18;;;;;;;1.07;1.07;;;6.00;82.50;;;;;;5073083;28;20486;-77
2022/11/06 05:04:45;;;;;;;0.97;0.97;;;6.10;82.40;;;;;;5073339;28;20441;-77
2022/11/06 05:07:14;;;;;;;1.10;1.10;;;6.10;82.30;;;;;;5073017;28;20846;-77
2022/11/06 05:09:41;;;;;;;0.90;0.90;;;6.20;82.00;;;;;;5073024;28;20945;-77
2022/11/06 05:12:08;;;;;;;0.80;0.80;;;6.00;82.80;;;;;;5073244;28;20507;-77
2022/11/06 05:14:35;;;;;;;0.93;0.93;;;5.90;83.90;;;;;;5073187;28;20941;-77
2022/11/06 05:17:01;;;;;;;1.10;1.10;;;5.50;86.20;;;;;;5073222;28;20454;-77
2022/11/06 05:19:28;;;;;;;1.10;1.10;;;5.60;87.00;;;;;;5073409;28;20453;-77
2022/11/06 05:24:40;;;;;;;0.90;0.90;;;5.60;86.80;;;;;;5056449;28;20943;-77
2022/11/06 05:27:06;;;;;;;1.10;1.10;;;5.70;86.10;;;;;;5076930;28;20854;-77
2022/11/06 05:29:33;;;;;;;1.00;1.00;;;5.70;85.60;;;;;;5077388;28;20453;-77
2022/11/06 05:32:00;;;;;;;1.00;1.00;;;5.80;85.50;;;;;;5077266;28;20481;-77
2022/11/06 05:34:26;;;;;;;0.97;0.97;;;5.80;85.30;;;;;;5077049;28;20449;-77
2022/11/06 05:36:53;;;;;;;1.00;1.00;;;5.90;85.10;;;;;;5077324;28;20438;-77
2022/11/06 05:39:20;;;;;;;0.87;0.87;;;5.90;85.00;;;;;;5077002;28;20437;-77
2022/11/06 05:41:48;;;;;;;1.00;1.00;;;5.80;85.20;;;;;;5076729;28;21022;-77
2022/11/06 05:44:15;;;;;;;1.00;1.00;;;5.80;85.40;;;;;;5076881;28;20449;-77
2022/11/06 05:46:41;;;;;;;0.87;0.87;;;5.70;85.80;;;;;;5076818;28;20446;-77
2022/11/06 05:49:09;;;;;;;1.00;1.00;;;5.70;85.70;;;;;;5077031;28;20818;-77
2022/11/06 05:51:35;;;;;;;1.10;1.10;;;5.80;85.90;;;;;;5076349;28;20880;-77
2022/11/06 05:54:03;;;;;;;1.17;1.17;;;5.80;85.40;;;;;;5076388;28;20936;-77
2022/11/06 05:56:29;;;;;;;0.90;0.90;;;5.70;85.80;;;;;;5076325;28;20450;-77
2022/11/06 05:58:57;;;;;;;1.10;1.10;;;5.50;86.70;;;;;;5076914;28;20445;-77
2022/11/06 06:01:24;;;;;;;0.93;0.93;;;5.60;86.80;;;;;;5076171;28;20992;-76
2022/11/06 06:03:51;;;;;;;0.97;0.97;;;5.70;86.50;;;;;;5076770;28;20445;-77
2022/11/06 06:06:19;;;;;;;0.97;0.97;;;5.80;86.00;;;;;;5076158;28;20942;-77
2022/11/06 06:08:46;;;;;;;0.83;0.83;;;5.80;85.20;;;;;;5076136;28;20441;-77
2022/11/06 06:11:12;;;;;;;1.00;1.00;;;5.90;85.00;;;;;;5076496;28;20466;-78
2022/11/06 06:13:39;;;;;;;1.00;1.00;;;5.90;84.30;;;;;;5076591;28;20929;-77
2022/11/06 06:16:07;;;;;;;1.33;1.03;;;5.90;84.30;;;;;;5076326;28;20457;-76
2022/11/06 06:18:34;;;;;;;1.00;1.00;;;6.00;84.10;;;;;;5076346;28;20975;-76
2022/11/06 06:21:01;;;;;;;1.10;1.10;;;5.90;84.30;;;;;;5076087;28;20544;-76
2022/11/06 06:23:27;;;;;;;0.90;0.90;;;5.70;84.90;;;;;;5076089;28;20852;-76
2022/11/06 06:25:56;;;;;;;0.90;0.90;;;5.70;84.90;;;;;;5075791;28;20457;-76
2022/11/06 06:28:22;;;;;;;0.93;0.93;;;5.50;84.90;;;;;;5075687;28;20970;-76
2022/11/06 06:30:49;;;;;;;1.10;1.10;;;5.30;85.80;;;;;;5075920;28;20465;-76
2022/11/06 06:33:17;;;;;;;0.90;0.90;;;5.30;86.00;;;;;;5075365;28;20441;-76
2022/11/06 06:35:44;;;;;;;0.83;0.83;;;5.40;86.60;;;;;;5075963;28;20445;-76
2022/11/06 06:38:11;;;;;;;0.90;0.90;;;5.50;86.30;;;;;;5075633;28;20441;-76
2022/11/06 06:40:37;;;;;;;0.90;0.90;;;5.50;86.50;;;;;;5075783;28;20454;-76
2022/11/06 06:43:04;;;;;;;0.90;0.90;;;5.50;86.90;;;;;;5075708;28;20481;-76
2022/11/06 06:45:31;;;;;;;0.80;0.80;;;6.00;87.50;;;;;;5075784;28;20453;-76
2022/11/06 06:48:02;;;;;;;0.90;0.90;;;6.70;84.10;;;;;;5075722;28;20495;-76
2022/11/06 06:50:30;;;;;;;0.90;0.90;;;7.60;82.20;;;;;;5075651;28;20425;-77
2022/11/06 06:52:57;;;;;;;1.10;1.10;;;8.90;77.40;;;;;;5075587;28;20446;-77
2022/11/06 06:55:24;;;;;;;0.80;0.80;;;10.10;72.80;;;;;;5075449;28;20834;-77
2022/11/06 06:57:56;;;;;;;1.03;1.03;;;10.60;68.30;;;;;;5075438;28;20445;-76
2022/11/06 07:00:23;;;;;;;0.77;0.77;;;10.70;68.00;;;;;;5075479;28;20462;-76
2022/11/06 07:02:50;;;;;;;1.20;1.20;;;11.30;67.10;;;;;;5075344;28;20489;-76
2022/11/06 07:05:17;;;;;;;0.80;0.80;;;11.80;65.00;;;;;;5076047;28;20454;-76
2022/11/06 07:07:45;;;;;;;0.90;0.90;;;12.10;64.70;;;;;;5075679;28;20457;-77
2022/11/06 07:10:11;;;;;;;1.00;1.00;;;12.10;63.10;;;;;;5075380;28;20461;-76
2022/11/06 07:12:38;;;;;;;0.80;0.80;;;11.60;63.80;;;;;;5075471;28;20465;-76
2022/11/06 07:15:06;;;;;;;0.90;0.90;;;10.80;65.00;;;;;;5075457;28;20445;-77
2022/11/06 07:17:33;;;;;;;0.80;0.80;;;9.80;67.70;;;;;;5075476;28;20812;-77
2022/11/06 07:19:59;;;;;;;1.80;1.80;;;9.70;68.60;;;;;;5075323;28;20448;-76
2022/11/06 07:22:26;;;;;;;0.90;0.90;;;9.90;67.70;;;;;;5075086;28;20857;-77
2022/11/06 07:24:54;;;;;;;1.07;0.97;;;9.80;68.20;;;;;;5076471;28;20453;-77
2022/11/06 07:27:21;;;;;;;0.90;0.90;;;10.50;68.10;;;;;;5075206;28;20955;-78
2022/11/06 07:29:48;;;;;;;0.90;0.90;;;11.40;65.30;;;;;;5075281;28;20441;-77
2022/11/06 07:32:14;;;;;;;0.90;0.90;;;11.20;64.60;;;;;;5074809;28;20462;-76
2022/11/06 07:34:41;;;;;;;0.70;0.70;;;11.40;65.20;;;;;;5074517;28;20941;-77
2022/11/06 07:37:08;;;;;;;0.73;0.73;;;12.60;63.40;;;;;;5074935;28;20445;-77
2022/11/06 07:39:35;;;;;;;0.80;0.80;;;14.10;60.30;;;;;;5074895;28;20453;-77
2022/11/06 07:42:03;;;;;;;0.93;0.90;;;15.00;56.60;;;;;;5074647;28;20485;-77
2022/11/06 07:44:30;;;;;;;0.80;0.80;;;15.10;56.60;;;;;;5073823;28;20454;-77
2022/11/06 07:46:56;;;;;;;0.70;0.70;;;15.20;56.00;;;;;;5074508;28;20457;-77
2022/11/06 07:49:23;;;;;;;0.90;0.90;;;16.00;54.80;;;;;;5075754;28;20785;-76
2022/11/06 07:51:50;;;;;;;0.80;0.80;;;16.00;54.00;;;;;;5075165;28;20462;-79
2022/11/06 07:54:16;;;;;;;0.80;0.80;;;17.20;53.40;;;;;;5074415;28;20476;-78
2022/11/06 07:56:43;;;;;;;0.70;0.70;;;18.20;50.50;;;;;;5074395;28;20453;-78
2022/11/06 07:59:11;;;;;;;0.80;0.80;;;19.40;49.00;;;;;;5074314;28;20976;-79
2022/11/06 08:01:38;;;;;;;0.80;0.80;;;20.60;46.80;;;;;;5073918;28;20906;-79
2022/11/06 08:04:05;;;;;;;0.80;0.80;;;21.30;45.50;;;;;;5074397;28;20478;-79
2022/11/06 08:06:31;;;;;;;0.67;0.67;;;22.20;43.60;;;;;;5075102;28;20468;-78
2022/11/06 08:08:58;;;;;;;0.80;0.80;;;20.70;44.60;;;;;;5074502;28;20446;-78
2022/11/06 08:11:26;;;;;;;0.90;0.90;;;19.10;47.20;;;;;;5074170;28;20498;-78
2022/11/06 08:13:53;;;;;;;0.80;0.80;;;16.40;52.00;;;;;;5074438;28;20445;-78
2022/11/06 08:16:21;;;;;;;0.80;0.80;;;14.00;57.80;;;;;;5074050;28;20449;-78
2022/11/06 08:18:47;;;;;;;0.93;0.93;;;12.60;61.30;;;;;;5074789;28;20461;-79
2022/11/06 08:21:14;;;;;;;0.77;0.77;;;11.10;66.20;;;;;;5074996;28;20466;-79
2022/11/06 08:23:41;;;;;;;0.83;0.83;;;10.10;69.60;;;;;;5074802;28;20477;-77
2022/11/06 08:26:07;;;;;;;0.97;0.97;;;9.20;72.40;;;;;;5075270;28;20446;-79
2022/11/06 08:28:35;;;;;;;1.10;1.10;;;9.10;74.50;;;;;;5074912;28;20450;-79
2022/11/06 08:31:04;;;;;;;1.00;1.00;;;9.20;74.60;;;;;;5074903;28;20476;-79
2022/11/06 08:33:32;;;;;;;0.70;0.70;;;9.10;75.70;;;;;;5075165;28;20442;-79
2022/11/06 08:36:02;;;;;;;0.90;0.80;;;8.90;76.20;;;;;;5075258;28;20461;-79
2022/11/06 08:38:29;;;;;;;1.10;1.10;;;8.90;77.00;;;;;;5075089;28;20469;-79
2022/11/06 08:40:55;;;;;;;0.97;0.97;;;8.90;77.40;;;;;;5074626;28;20469;-79
2022/11/06 08:43:25;;;;;;;1.20;1.20;;;8.70;78.40;;;;;;5074799;28;20477;-79
2022/11/06 08:45:52;;;;;;;0.90;0.90;;;8.70;79.30;;;;;;5075126;28;20458;-79
2022/11/06 08:48:19;;;;;;;0.83;0.83;;;8.50;79.10;;;;;;5074379;28;20859;-79
2022/11/06 08:50:47;;;;;;;0.70;0.70;;;8.50;79.50;;;;;;5075161;28;20480;-79
2022/11/06 08:53:14;;;;;;;0.97;0.97;;;8.30;80.20;;;;;;5074427;28;20445;-79
2022/11/06 08:55:40;;;;;;;0.70;0.70;;;8.10;81.80;;;;;;5075444;28;20450;-79
2022/11/06 08:58:08;;;;;;;0.80;0.80;;;8.10;82.60;;;;;;5074768;28;20449;-78
2022/11/06 09:00:35;;;;;;;0.80;0.80;;;8.30;83.00;;;;;;5074598;28;20457;-79
2022/11/06 09:03:04;;;;;;;0.90;0.90;;;8.20;82.60;;;;;;5074436;28;20508;-78
2022/11/06 09:05:31;;;;;;;0.80;0.80;;;8.40;82.50;;;;;;5074410;28;20928;-79
2022/11/06 09:07:59;;;;;;;0.93;0.93;;;8.30;83.90;;;;;;5074910;28;20446;-79
2022/11/06 09:10:27;;;;;;;0.97;0.97;;;8.20;83.70;;;;;;5074775;28;20446;-79
2022/11/06 09:12:54;;;;;;;0.87;0.87;;;8.50;83.90;;;;;;5074296;28;20533;-79
2022/11/06 09:15:21;;;;;;;0.90;0.90;;;8.60;82.80;;;;;;5074323;28;20445;-79
2022/11/06 09:17:50;;;;;;;0.80;0.80;;;8.40;81.80;;;;;;5074373;28;20446;-79
2022/11/06 09:20:19;;;;;;;0.80;0.80;;;8.30;82.40;;;;;;5074953;28;20445;-79
2022/11/06 09:22:46;;;;;;;0.80;0.80;;;8.40;83.30;;;;;;5074285;28;20992;-79
2022/11/06 09:25:14;;;;;;;1.00;1.00;;;8.50;83.90;;;;;;5074846;28;20457;-79
2022/11/06 09:27:42;;;;;;;0.83;0.83;;;8.70;83.60;;;;;;5074689;28;20453;-79
2022/11/06 09:30:11;;;;;;;0.90;0.90;;;8.70;84.40;;;;;;5074629;28;20446;-78
2022/11/06 09:32:38;;;;;;;0.87;0.87;;;8.80;82.50;;;;;;5074607;28;20515;-79
2022/11/06 09:35:06;;;;;;;0.80;0.80;;;8.90;82.90;;;;;;5074959;28;20453;-79
2022/11/06 09:37:32;;;;;;;1.00;0.90;;;9.10;82.00;;;;;;5075292;28;20445;-79
2022/11/06 09:39:59;;;;;;;0.90;0.90;;;9.40;82.30;;;;;;5075917;28;20821;-79
2022/11/06 09:42:39;;;;;;;0.80;0.80;;;9.40;80.90;;;;;;5074374;28;20461;-79
2022/11/06 09:45:11;;;;;;;0.80;0.80;;;9.30;81.40;;;;;;5074185;28;20441;-79
2022/11/06 09:47:43;;;;;;;0.80;0.80;;;9.20;82.00;;;;;;5074947;28;20441;-79
2022/11/06 09:50:17;;;;;;;0.97;0.90;;;9.10;81.70;;;;;;5073837;28;20437;-80
2022/11/06 09:52:49;;;;;;;0.87;0.87;;;8.80;82.30;;;;;;5073740;28;20470;-79
2022/11/06 09:55:21;;;;;;;0.80;0.80;;;8.80;82.30;;;;;;5074010;28;20456;-79
2022/11/06 09:57:55;;;;;;;0.80;0.80;;;8.70;82.00;;;;;;5074054;28;20430;-79
2022/11/06 10:00:22;;;;;;;0.80;0.80;;;8.70;83.30;;;;;;5074251;28;20429;-79
2022/11/06 10:02:51;;;;;;;0.80;0.80;;;8.80;83.80;;;;;;5074056;28;20496;-79
2022/11/06 10:05:25;;;;;;;0.80;0.80;;;8.80;83.60;;;;;;5074261;28;20450;-79
2022/11/06 10:07:55;;;;;;;0.80;0.80;;;8.90;83.10;;;;;;5074755;28;20422;-79
2022/11/06 10:10:30;;;;;;;0.80;0.80;;;8.90;82.40;;;;;;5077967;28;20507;-79
2022/11/06 10:13:19;;;;;;;0.80;0.80;;;8.80;82.80;;;;;;5078530;28;20450;-79
2022/11/06 10:15:51;;;;;;;0.77;0.77;;;8.80;83.60;;;;;;5078506;28;20449;-79
2022/11/06 10:18:28;;;;;;;0.80;0.80;;;9.00;82.40;;;;;;5077856;28;20430;-79
2022/11/06 10:21:03;;;;;;;0.70;0.70;;;9.20;81.70;;;;;;5077943;28;20473;-79
2022/11/06 10:23:39;;;;;;;0.80;0.70;;;9.50;82.90;;;;;;5077810;28;21047;-79
2022/11/06 10:26:11;;;;;;;0.70;0.70;;;9.60;81.60;;;;;;5077585;28;20432;-79
2022/11/06 10:28:57;;;;;;;0.63;0.63;;;9.90;80.80;;;;;;5077492;28;20905;-79
2022/11/06 10:31:33;;;;;;;0.70;0.70;;;9.70;78.90;;;;;;5078011;28;20473;-79
2022/11/06 10:34:04;;;;;;;0.70;0.70;;;9.90;79.90;;;;;;5077682;28;20426;-79
2022/11/06 10:36:37;;;;;;;0.70;0.70;;;9.90;80.20;;;;;;5078091;28;20434;-79
2022/11/06 10:39:10;;;;;;;0.80;0.80;;;10.10;79.70;;;;;;5077452;28;20441;-79
2022/11/06 10:41:38;;;;;;;0.77;0.77;;;10.30;79.70;;;;;;5077076;28;20469;-79
2022/11/06 10:44:13;;;;;;;0.60;0.60;;;10.30;80.00;;;;;;5076991;28;20531;-79
2022/11/06 10:46:43;;;;;;;0.70;0.70;;;10.30;77.60;;;;;;5076785;28;20437;-80
2022/11/06 10:49:16;;;;;;;0.60;0.60;;;10.40;77.20;;;;;;5077620;28;20446;-79
2022/11/06 10:51:56;;;;;;;0.60;0.60;;;10.30;77.10;;;;;;5076362;28;20528;-79
2022/11/06 10:54:35;;;;;;;0.63;0.63;;;10.20;77.90;;;;;;5076336;28;20430;-79
2022/11/06 10:57:16;;;;;;;0.60;0.60;;;10.20;78.80;;;;;;5076664;28;20441;-79
2022/11/06 10:59:44;;;;;;;0.70;0.70;;;10.20;78.50;;;;;;5076479;28;20800;-79
2022/11/06 11:02:25;;;;;;;0.70;0.70;;;10.20;78.40;;;;;;5076986;28;20482;-79
2022/11/06 11:04:52;;;;;;;0.60;0.60;;;10.30;78.90;;;;;;5077236;28;20462;-79
2022/11/06 11:07:19;;;;;;;0.70;0.70;;;10.20;78.90;;;;;;5077226;28;20457;-79
2022/11/06 11:09:48;;;;;;;0.70;0.70;;;10.30;79.10;;;;;;5077258;28;20476;-79
2022/11/06 11:12:21;;;;;;;0.70;0.70;;;10.30;80.00;;;;;;5077304;28;20513;-78
2022/11/06 11:15:06;;;;;;;0.70;0.70;;;10.40;78.00;;;;;;5076843;28;20418;-79
2022/11/06 11:17:32;;;;;;;0.60;0.53;;;10.70;79.10;;;;;;5076632;28;20445;-79
2022/11/06 11:20:00;;;;;;;0.60;0.60;;;10.60;77.80;;;;;;5076469;28;20473;-79
2022/11/06 11:22:27;;;;;;;0.70;0.70;;;10.60;78.50;;;;;;5076500;28;20831;-78
2022/11/06 11:25:03;;;;;;;0.67;0.67;;;10.70;78.20;;;;;;5076359;28;20530;-79
2022/11/06 11:27:31;;;;;;;0.60;0.60;;;10.80;77.50;;;;;;5076906;28;20429;-78
2022/11/06 11:29:59;;;;;;;0.70;0.70;;;10.80;77.60;;;;;;5076845;28;20449;-79
2022/11/06 11:32:29;;;;;;;0.60;0.53;;;10.80;77.40;;;;;;5076869;28;20477;-79
2022/11/06 11:34:57;;;;;;;0.70;0.70;;;10.60;77.80;;;;;;5076537;28;20478;-78
2022/11/06 11:37:27;;;;;;;1.13;0.70;;;10.60;77.90;;;;;;5076036;28;20524;-78
2022/11/06 11:39:54;;;;;;;0.70;0.70;;;10.80;78.80;;;;;;5075812;28;20893;-79
2022/11/06 11:42:27;;;;;;;0.70;0.70;;;11.00;77.00;;;;;;5075465;28;20979;-77
2022/11/06 11:45:13;;;;;;;0.80;0.80;;;11.00;78.00;;;;;;5075617;28;20477;-79
2022/11/06 11:47:41;;;;;;;0.90;0.90;;;11.00;77.70;;;;;;5075591;28;20433;-78
2022/11/06 11:50:24;;;;;;;0.70;0.70;;;11.20;77.20;;;;;;5075789;28;20454;-79
2022/11/06 11:52:55;;;;;;;0.67;0.67;;;11.30;76.20;;;;;;5075987;28;20433;-79
2022/11/06 11:55:26;;;;;;;0.80;0.70;;;11.40;74.90;;;;;;5075854;28;20968;-78
2022/11/06 11:57:55;;;;;;;1.13;0.60;;;11.70;74.00;;;;;;5074847;28;20445;-79
2022/11/06 12:00:24;;;;;;;0.80;0.80;;;12.40;72.30;;;;;;5074944;28;20449;-78
2022/11/06 12:02:53;;;;;;;0.80;0.80;;;13.10;69.90;;;;;;5074543;28;20461;-79
2022/11/06 12:05:23;;;;;;;0.70;0.70;;;14.00;68.20;;;;;;5079797;28;20987;-79
2022/11/06 12:07:54;;;;;;;0.70;0.70;;;14.60;66.20;;;;;;5083586;28;20430;-79
2022/11/06 12:10:33;;;;;;;0.80;0.80;;;15.50;65.10;;;;;;5083366;28;20452;-80
2022/11/06 12:13:02;;;;;;;0.80;0.80;;;16.50;61.20;;;;;;5082853;28;20473;-79
2022/11/06 12:15:38;;;;;;;0.70;0.70;;;16.60;58.80;;;;;;5083450;28;20460;-77
2022/11/06 12:18:09;;;;;;;0.70;0.70;;;16.20;59.70;;;;;;5082125;28;20429;-77
2022/11/06 12:20:42;;;;;;;0.70;0.70;;;16.80;59.60;;;;;;5081618;28;20430;-77
2022/11/06 12:23:15;;;;;;;0.70;0.70;;;17.60;58.60;;;;;;5081987;28;20437;-79
2022/11/06 12:25:45;;;;;;;0.90;0.90;;;18.30;56.30;;;;;;5082573;28;20501;-80
2022/11/06 12:28:14;;;;;;;0.70;0.70;;;18.40;55.80;;;;;;5082388;28;20521;-80
2022/11/06 12:30:46;;;;;;;0.67;0.67;;;19.00;54.80;;;;;;5081842;28;20442;-80
2022/11/06 12:33:19;;;;;;;0.80;0.70;;;19.10;54.50;;;;;;5082451;28;20444;-80
2022/11/06 12:35:49;;;;;;;0.70;0.70;;;19.20;53.60;;;;;;5082455;28;20441;-79
2022/11/06 12:38:24;;;;;;;0.60;0.60;;;18.40;54.40;;;;;;5081631;28;20453;-79
2022/11/06 12:40:57;;;;;;;0.60;0.60;;;17.30;56.90;;;;;;5082434;28;20976;-79
2022/11/06 12:43:32;;;;;;;0.77;0.77;;;15.60;60.50;;;;;;5082185;28;20436;-80
2022/11/06 12:46:29;;;;;;;0.80;0.80;;;15.10;63.40;;;;;;5081163;28;20421;-79
2022/11/06 12:49:22;;;;;;;0.70;0.70;;;15.00;64.00;;;;;;5081686;28;20430;-78
2022/11/06 12:52:02;;;;;;;0.70;0.70;;;15.30;63.90;;;;;;5058931;28;20505;-79
2022/11/06 12:54:45;;;;;;;0.70;0.70;;;15.30;64.30;;;;;;5081721;28;20500;-78
2022/11/06 12:57:21;;;;;;;0.80;0.80;;;15.30;64.20;;;;;;5081977;28;20434;-78
2022/11/06 13:00:00;;;;;;;0.63;0.63;;;15.20;64.30;;;;;;5082286;28;20437;-78
2022/11/06 13:02:41;;;;;;;0.70;0.70;;;15.40;63.70;;;;;;5081765;28;20497;-79
2022/11/06 13:05:16;;;;;;;0.93;0.80;;;15.90;63.50;;;;;;5082385;28;20473;-79
2022/11/06 13:08:05;;;;;;;0.60;0.60;;;16.60;61.00;;;;;;5082333;28;20429;-81
2022/11/06 13:10:41;;;;;;;0.70;0.70;;;16.70;61.50;;;;;;5081974;28;20873;-80
2022/11/06 13:13:25;;;;;;;0.70;0.70;;;16.40;61.20;;;;;;5081894;28;20521;-79
2022/11/06 13:16:00;;;;;;;0.70;0.70;;;16.20;62.30;;;;;;5082263;28;20437;-79
2022/11/06 13:18:33;;;;;;;0.70;0.70;;;15.70;62.70;;;;;;5082129;28;20434;-79
2022/11/06 13:21:06;;;;;;;0.70;0.70;;;15.50;63.80;;;;;;5081966;28;20470;-79
2022/11/06 13:23:37;;;;;;;0.60;0.60;;;15.00;64.80;;;;;;5082208;28;20458;-79
2022/11/06 13:26:12;;;;;;;0.70;0.60;;;14.80;64.20;;;;;;5082131;28;20426;-80
2022/11/06 13:28:44;;;;;;;0.60;0.60;;;14.40;64.10;;;;;;5082290;28;20425;-79
2022/11/06 13:31:14;;;;;;;0.60;0.60;;;14.00;66.10;;;;;;5081869;28;20458;-79
2022/11/06 13:33:46;;;;;;;0.60;0.53;;;13.90;66.50;;;;;;5081576;28;20429;-78
2022/11/06 13:36:14;;;;;;;0.60;0.60;;;13.80;65.80;;;;;;5082133;28;20414;-78
2022/11/06 13:38:45;;;;;;;0.60;0.60;;;13.40;67.00;;;;;;5082499;28;20442;-79
2022/11/06 13:41:15;;;;;;;0.60;0.60;;;13.20;68.30;;;;;;5082092;28;20466;-79
2022/11/06 13:43:46;;;;;;;0.70;0.70;;;13.10;69.90;;;;;;5083919;28;20462;-78
2022/11/06 13:46:24;;;;;;;0.67;0.67;;;13.00;69.30;;;;;;5085870;28;20542;-77
2022/11/06 13:49:04;;;;;;;0.70;0.70;;;13.20;68.70;;;;;;5085417;28;20877;-77
2022/11/06 13:51:41;;;;;;;0.90;0.70;;;13.20;69.80;;;;;;5083529;28;20462;-77
2022/11/06 13:54:19;;;;;;;0.80;0.80;;;13.30;70.00;;;;;;5077597;28;20757;-77
2022/11/06 13:57:24;;;;;;;0.60;0.60;;;13.20;70.40;;;;;;5076742;28;20433;-77
2022/11/06 14:00:10;;;;;;;0.60;0.60;;;12.90;70.30;;;;;;5076932;28;20437;-78
2022/11/06 14:03:09;;;;;;;0.60;0.60;;;12.60;70.70;;;;;;5076784;28;20477;-79
2022/11/06 14:06:00;;;;;;;0.70;0.70;;;12.20;71.60;;;;;;5079329;28;20972;-77
2022/11/06 14:08:31;;;;;;;0.70;0.70;;;12.20;72.70;;;;;;5082021;28;20533;-79
2022/11/06 14:11:01;;;;;;;0.60;0.60;;;12.30;72.30;;;;;;5085291;28;20541;-78
2022/11/06 14:13:32;;;;;;;0.60;0.60;;;12.40;72.40;;;;;;5084796;28;20452;-79
2022/11/06 14:16:06;;;;;;;0.60;0.60;;;12.40;71.30;;;;;;5084389;28;20437;-78
2022/11/06 14:18:33;;;;;;;0.60;0.60;;;12.40;71.50;;;;;;5084266;28;20438;-77
2022/11/06 14:21:44;;;;;;;0.70;0.70;;;12.50;72.50;;;;;;5081593;28;20473;-76
2022/11/06 14:24:32;;;;;;;0.70;0.70;;;12.60;71.80;;;;;;5081909;28;20465;-78
2022/11/06 14:27:01;;;;;;;0.73;0.73;;;12.30;71.80;;;;;;5077075;28;20454;-80
2022/11/06 14:29:59;;;;;;;0.60;0.60;;;12.30;72.40;;;;;;5083261;28;20450;-80
2022/11/06 14:32:41;;;;;;;0.70;0.70;;;12.30;73.40;;;;;;5080408;28;20462;-78
2022/11/06 14:35:50;;;;;;;0.80;0.80;;;12.30;73.00;;;;;;5083609;28;20434;-78
2022/11/06 14:38:34;;;;;;;0.90;0.90;;;12.10;73.60;;;;;;5082779;28;20521;-78
2022/11/06 14:41:01;;;;;;;0.60;0.60;;;11.80;74.50;;;;;;5084004;28;20474;-79
2022/11/06 14:43:32;;;;;;;1.13;0.70;;;11.60;75.30;;;;;;5084536;28;20457;-79
2022/11/06 14:46:02;;;;;;;0.60;0.60;;;11.60;76.40;;;;;;5081991;28;20472;-78
2022/11/06 14:48:33;;;;;;;0.60;0.60;;;11.40;77.10;;;;;;5082570;28;20429;-79
2022/11/06 14:51:02;;;;;;;0.60;0.60;;;11.30;77.40;;;;;;5084047;28;20561;-79
2022/11/06 14:53:34;;;;;;;0.60;0.60;;;11.20;77.20;;;;;;5083225;28;20442;-79
2022/11/06 14:56:03;;;;;;;0.70;0.70;;;11.00;76.50;;;;;;5082598;28;20912;-79
2022/11/06 14:58:32;;;;;;;0.90;0.90;;;10.90;77.90;;;;;;5083487;28;20446;-79
2022/11/06 15:01:02;;;;;;;0.80;0.80;;;11.00;79.60;;;;;;5082743;28;20503;-78
2022/11/06 15:03:35;;;;;;;0.70;0.70;;;11.00;79.60;;;;;;5083253;28;20460;-79
2022/11/06 15:06:34;;;;;;;0.70;0.70;;;11.20;79.30;;;;;;5082322;28;20505;-78
2022/11/06 15:09:05;;;;;;;0.63;0.60;;;11.40;76.80;;;;;;5083484;28;20458;-79
2022/11/06 15:11:52;;;;;;;0.60;0.60;;;11.50;76.10;;;;;;5082548;28;20988;-79
2022/11/06 15:14:55;;;;;;;0.60;0.60;;;11.60;76.00;;;;;;5083329;28;20450;-79
2022/11/06 15:17:23;;;;;;;0.60;0.60;;;11.30;76.10;;;;;;5077112;28;20454;-78
2022/11/06 15:19:59;;;;;;;0.60;0.60;;;11.20;76.80;;;;;;5075274;28;20449;-79
2022/11/06 15:22:33;;;;;;;0.80;0.80;;;11.40;76.90;;;;;;5075265;28;20461;-78
2022/11/06 15:25:12;;;;;;;0.70;0.70;;;11.20;76.90;;;;;;5075058;28;20466;-78
2022/11/06 15:27:43;;;;;;;0.60;0.60;;;11.20;76.80;;;;;;5075056;28;20499;-78
2022/11/06 15:30:16;;;;;;;0.70;0.70;;;11.10;77.30;;;;;;5075241;28;20435;-78
2022/11/06 15:32:45;;;;;;;0.70;0.70;;;11.30;77.30;;;;;;5074885;28;20493;-78
2022/11/06 15:35:16;;;;;;;0.60;0.60;;;11.30;77.00;;;;;;5074836;28;20507;-78
2022/11/06 15:37:45;;;;;;;0.70;0.70;;;11.20;77.50;;;;;;5074860;28;20445;-78
2022/11/06 15:40:27;;;;;;;0.70;0.70;;;11.20;77.60;;;;;;5074746;28;20446;-78
2022/11/06 15:42:55;;;;;;;0.60;0.60;;;11.00;78.40;;;;;;5074907;28;20430;-78
2022/11/06 15:45:24;;;;;;;0.60;0.60;;;11.00;78.40;;;;;;5074214;28;20996;-78
2022/11/06 15:47:56;;;;;;;0.70;0.70;;;11.00;78.50;;;;;;5074599;28;20446;-78
2022/11/06 15:50:25;;;;;;;0.90;0.90;;;11.10;78.70;;;;;;5074177;28;20956;-79
2022/11/06 15:52:51;;;;;;;0.70;0.70;;;11.00;78.60;;;;;;5074592;28;20450;-78
2022/11/06 15:55:29;;;;;;;0.80;0.80;;;11.00;79.00;;;;;;5074115;28;20929;-78
2022/11/06 15:58:06;;;;;;;0.90;0.90;;;11.10;78.40;;;;;;5074135;28;20429;-78
2022/11/06 16:00:35;;;;;;;0.70;0.70;;;11.00;78.70;;;;;;5074532;28;20436;-78
2022/11/06 16:03:04;;;;;;;0.80;0.80;;;11.00;78.80;;;;;;5080239;28;20453;-78
2022/11/06 16:05:34;;;;;;;0.80;0.80;;;11.00;78.60;;;;;;5080931;28;20489;-78
2022/11/06 16:08:01;;;;;;;0.80;0.80;;;11.00;78.00;;;;;;5081909;28;20450;-78
2022/11/06 16:10:30;;;;;;;0.80;0.80;;;11.00;78.50;;;;;;5081775;28;20488;-79
2022/11/06 16:13:06;;;;;;;0.80;0.80;;;11.00;78.20;;;;;;5082032;28;20475;-78
2022/11/06 16:15:53;;;;;;;0.90;0.90;;;11.00;78.00;;;;;;5081701;28;20818;-78
2022/11/06 16:18:24;;;;;;;0.90;0.90;;;10.80;78.50;;;;;;5081043;28;20517;-79
2022/11/06 16:20:54;;;;;;;0.70;0.70;;;10.70;78.70;;;;;;5082223;28;20466;-78
2022/11/06 16:23:25;;;;;;;0.80;0.80;;;10.60;79.30;;;;;;5082370;28;20434;-78
2022/11/06 16:26:00;;;;;;;0.70;0.70;;;10.60;79.30;;;;;;5082239;28;20476;-78
2022/11/06 16:28:28;;;;;;;0.80;0.80;;;10.50;80.00;;;;;;5081618;28;20430;-79
2022/11/06 16:31:01;;;;;;;0.80;0.80;;;10.50;80.10;;;;;;5081757;28;20489;-77
2022/11/06 16:33:29;;;;;;;0.80;0.80;;;10.50;79.90;;;;;;5080038;28;20434;-80
2022/11/06 16:36:10;;;;;;;0.90;0.90;;;10.40;80.30;;;;;;5081381;28;20438;-79
2022/11/06 16:38:46;;;;;;;0.90;0.90;;;10.30;80.60;;;;;;5075849;28;20452;-78
2022/11/06 16:41:36;;;;;;;0.70;0.70;;;10.30;80.80;;;;;;5073606;28;20457;-78
2022/11/06 16:44:21;;;;;;;0.80;0.80;;;10.40;80.70;;;;;;5073651;28;20530;-78
2022/11/06 16:47:15;;;;;;;0.80;0.80;;;10.40;80.30;;;;;;5073933;28;20476;-79
2022/11/06 16:49:43;;;;;;;0.83;0.83;;;10.30;80.20;;;;;;5075409;28;20438;-79
2022/11/06 16:52:18;;;;;;;0.80;0.80;;;10.10;80.60;;;;;;5073724;28;20976;-78
2022/11/06 16:54:47;;;;;;;0.70;0.70;;;10.20;82.80;;;;;;5073933;28;20449;-78
2022/11/06 16:57:19;;;;;;;0.80;0.80;;;10.20;81.70;;;;;;5073882;28;20801;-79
2022/11/06 16:59:59;;;;;;;0.90;0.90;;;10.30;81.20;;;;;;5073552;28;20458;-78
2022/11/06 17:02:29;;;;;;;0.90;0.90;;;10.30;80.70;;;;;;5073419;28;20481;-78
2022/11/06 17:05:15;;;;;;;0.90;0.90;;;10.40;80.40;;;;;;5073518;28;20462;-79
2022/11/06 17:07:43;;;;;;;0.90;0.90;;;10.50;80.20;;;;;;5073229;28;20912;-79
2022/11/06 17:10:36;;;;;;;0.70;0.70;;;10.50;80.10;;;;;;5073365;28;20456;-79
2022/11/06 17:13:15;;;;;;;0.80;0.80;;;10.60;80.20;;;;;;5073380;28;20426;-79
2022/11/06 17:15:42;;;;;;;0.90;0.90;;;10.50;80.10;;;;;;5075094;28;20418;-80
2022/11/06 17:18:17;;;;;;;0.73;0.73;;;10.40;80.30;;;;;;5079091;28;20450;-80
2022/11/06 17:20:51;;;;;;;1.13;1.13;;;10.40;80.50;;;;;;5080101;28;20472;-80
2022/11/06 17:23:17;;;;;;;0.90;0.90;;;10.30;81.10;;;;;;5078317;28;20430;-79
2022/11/06 17:25:45;;;;;;;1.00;0.80;;;10.40;80.40;;;;;;5078186;28;20893;-79
2022/11/06 17:28:14;;;;;;;0.70;0.70;;;10.40;80.70;;;;;;5078631;28;20441;-79